Flight Track Log - Related Links

Times and Time Zones

All times are in EST time to prevent confusion due to time zone crossing. See the CSH802 flight status page for this flight to view local times or setup timezone preferences in your user account.

Time Position Orientation Groundspeed Altitude Reporting Facility
EST Latitude Longitude Course Direction KTS MPH feet Rate Location/Type
Sun 11:11:00 PM 25.4307 121.5653 North  Level Estimated
Sun 11:12:00 PM 25.5029 121.5680 North  Level Estimated
Sun 11:13:00 PM 25.5752 121.5707 North  Level Estimated
Sun 11:14:00 PM 25.6474 121.5734 North  Level Estimated
Sun 11:15:00 PM 25.7180 121.5761 North  Level Estimated
Sun 11:16:00 PM 25.7886 121.5788 North  Level Estimated
Sun 11:17:00 PM 25.8591 121.5815 North  Level Estimated
Sun 11:18:00 PM 25.9297 121.5842 North  Level Estimated
Sun 11:19:00 PM 26.0003 121.5869 North  Level Estimated
Sun 11:20:00 PM 26.0717 121.5896 North  Level Estimated
Sun 11:21:00 PM 26.1431 121.5923 North  Level Estimated
Sun 11:22:00 PM 26.2145 121.5950 North  Level Estimated
Sun 11:23:00 PM 26.2859 121.5978 North  Level Estimated
Sun 11:24:00 PM 26.3573 121.6005 North  Level Estimated
Sun 11:25:00 PM 26.4287 121.6032 North  Level Estimated
Sun 11:26:00 PM 26.5001 121.6060 North  Level Estimated
Sun 11:27:00 PM 26.5715 121.6087 North  Level Estimated
Sun 11:28:00 PM 26.6429 121.6115 North  Level Estimated
Sun 11:29:00 PM 26.7143 121.6142 North  Level Estimated
Sun 11:30:00 PM 26.7857 121.6170 North  Level Estimated
Sun 11:31:00 PM 26.8571 121.6198 North  Level Estimated
Sun 11:32:00 PM 26.9285 121.6225 North  Level Estimated
Sun 11:33:00 PM 26.9999 121.6253 North  Level Estimated
Sun 11:34:00 PM 27.0713 121.6281 North  Level Estimated
Sun 11:35:00 PM 27.1427 121.6308 North  Level Estimated
Sun 11:36:00 PM 27.2141 121.6336 North  Level Estimated
Sun 11:37:00 PM 27.2855 121.6364 North  Level Estimated
Sun 11:38:00 PM 27.3569 121.6392 North  Level Estimated
Sun 11:39:00 PM 27.4283 121.6420 North  Level Estimated
Sun 11:40:00 PM 27.4997 121.6447 North  Level Estimated
Sun 11:41:00 PM 27.5711 121.6475 North  Level Estimated
Sun 11:42:00 PM 27.6425 121.6503 North  Level Estimated
Sun 11:43:00 PM 27.7138 121.6531 North  Level Estimated
Sun 11:44:00 PM 27.7852 121.6560 North  Level Estimated
Sun 11:45:00 PM 27.8566 121.6588 North  Level Estimated
Sun 11:46:00 PM 27.9280 121.6616 North  Level Estimated
Sun 11:47:00 PM 27.9994 121.6644 North  Level Estimated
Sun 11:48:00 PM 28.0708 121.6672 North  Level Estimated
Sun 11:49:00 PM 28.1422 121.6700 North  Level Estimated
Sun 11:50:00 PM 28.2136 121.6729 North  Level Estimated
Sun 11:51:00 PM 28.2850 121.6757 North  Level Estimated
Sun 11:52:00 PM 28.3563 121.6785 North  Level Estimated
Sun 11:53:00 PM 28.4277 121.6814 North  Level Estimated
Sun 11:54:00 PM 28.4991 121.6842 North  Level Estimated
Sun 11:55:00 PM 28.5705 121.6871 North  Level Estimated
Sun 11:56:00 PM 28.6419 121.6899 North  Level Estimated
Sun 11:57:00 PM 28.7133 121.6928 North  Level Estimated
Sun 11:58:00 PM 28.7847 121.6956 North  Level Estimated
Sun 11:59:00 PM 28.8561 121.6985 North  Level Estimated
Mon 12:00:00 AM 28.9275 121.7014 North  Level Estimated
Mon 12:01:00 AM 28.9989 121.7042 North  Level Estimated
Mon 12:02:00 AM 29.0702 121.7071 North  Level Estimated
Mon 12:03:00 AM 29.1416 121.7100 North  Level Estimated
Mon 12:04:00 AM 29.2130 121.7129 North  Level Estimated
Mon 12:05:00 AM 29.2844 121.7158 North  Level Estimated
Mon 12:06:00 AM 29.3558 121.7186 North  Level Estimated
Mon 12:07:00 AM 29.4272 121.7215 North  Level Estimated
Mon 12:08:00 AM 29.4986 121.7244 North  Level Estimated
Mon 12:09:00 AM 29.5700 121.7273 North  Level Estimated
Mon 12:10:00 AM 29.6414 121.7302 North  Level Estimated
Mon 12:11:00 AM 29.7128 121.7331 North  Level Estimated
Mon 12:12:00 AM 29.7841 121.7361 North  Level Estimated
Mon 12:13:00 AM 29.8555 121.7390 North  Level Estimated
Mon 12:14:00 AM 29.9269 121.7419 North  Level Estimated
Mon 12:15:00 AM 29.9983 121.7448 North  Level Estimated
Mon 12:16:00 AM 30.0697 121.7478 North  Level Estimated
Mon 12:17:00 AM 30.1411 121.7507 North  Level Estimated
Mon 12:18:00 AM 30.2125 121.7536 North  Level Estimated
Mon 12:19:00 AM 30.2839 121.7566 North  Level Estimated
Mon 12:20:00 AM 30.3553 121.7595 North  Level Estimated
Mon 12:21:00 AM 30.4267 121.7625 North  Level Estimated
Mon 12:22:00 AM 30.4981 121.7654 North  Level Estimated
Mon 12:23:00 AM 30.5694 121.7684 North  Level Estimated
Mon 12:24:00 AM 30.6408 121.7714 North  Level Estimated
Mon 12:25:00 AM 30.7122 121.7744 North  Level Estimated
Mon 12:26:00 AM 30.7836 121.7773 North  Level Estimated
Mon 12:27:00 AM 30.8550 121.7803 North  Level Estimated
Mon 12:28:00 AM 30.9264 121.7833 North  Level Estimated
Mon 12:29:00 AM 30.9978 121.7863 North  Level Estimated
Mon 12:30:00 AM 31.0692 121.7893 North  Level Estimated
Mon 12:31:00 AM 31.1406 121.7923 North  Level Estimated
Mon 12:32:00 AM 31.1428 121.7924 North  Level Estimated
Mon 12:33:00 AM 31.1428 121.7924 221° Southwest  Level Estimated
Mon 12:34:00 AM 31.1428 121.7924 221° Southwest  Level Estimated
Mon 12:35:00 AM 31.1428 121.7924 221° Southwest  Level Estimated
Mon 12:36:00 AM 31.1428 121.7924 221° Southwest  Level Estimated
Mon 12:37:00 AM 31.1428 121.7924 221° Southwest  Level Estimated
Mon 12:38:00 AM 31.1428 121.7924 221° Southwest  Level Estimated
Mon 12:39:00 AM 31.1428 121.7924 221° Southwest  Level Estimated
Mon 12:40:00 AM 31.1428 121.7924 221° Southwest  Level Estimated
Mon 12:41:00 AM 31.1428 121.7924 221° Southwest  Level Estimated
Mon 12:42:00 AM 31.1428 121.7924 221° Southwest  Level Estimated
Mon 12:43:00 AM 31.1428 121.7924 221° Southwest  Level Estimated
Mon 12:44:00 AM 31.1428 121.7924 221° Southwest  Level Estimated
Mon 12:45:00 AM 31.1428 121.7924 221° Southwest  Level Estimated
Mon 12:46:00 AM 31.1428 121.7924 221° Southwest  Level Estimated
Mon 12:47:00 AM 31.1428 121.7924 221° Southwest  Level Estimated

Login

Don't have an account? Register now (free) for customized features, flight alerts, and more!